createdAt,value
2022-08-03T00:00:41.486Z,24.20
2022-08-03T00:03:10.323Z,24.10
2022-08-03T00:05:39.893Z,24.10
2022-08-03T00:08:08.715Z,24.00
2022-08-03T00:10:38.242Z,24.00
2022-08-03T00:13:08.562Z,24.00
2022-08-03T00:15:37.347Z,23.90
2022-08-03T00:18:06.132Z,23.90
2022-08-03T00:20:35.061Z,23.90
2022-08-03T00:23:03.995Z,23.90
2022-08-03T00:25:32.701Z,23.80
2022-08-03T00:28:01.548Z,23.70
2022-08-03T00:30:32.481Z,23.80
2022-08-03T00:33:01.761Z,23.80
2022-08-03T00:35:36.866Z,23.80
2022-08-03T00:38:19.678Z,23.70
2022-08-03T00:40:48.833Z,23.70
2022-08-03T00:43:17.645Z,23.60
2022-08-03T00:45:47.718Z,23.70
2022-08-03T00:48:30.147Z,23.70
2022-08-03T00:51:02.991Z,23.70
2022-08-03T00:53:32.748Z,23.60
2022-08-03T00:56:01.585Z,23.60
2022-08-03T00:58:30.520Z,23.60
2022-08-03T01:01:00.751Z,23.70
2022-08-03T01:03:30.044Z,23.60
2022-08-03T01:06:09.396Z,23.60
2022-08-03T01:08:47.907Z,23.60
2022-08-03T01:11:25.861Z,23.50
2022-08-03T01:14:18.392Z,23.50
2022-08-03T01:17:02.204Z,23.50
2022-08-03T01:19:51.608Z,23.50
2022-08-03T01:22:47.699Z,23.40
2022-08-03T01:25:33.871Z,23.40
2022-08-03T01:28:37.252Z,23.40
2022-08-03T01:31:11.626Z,23.40
2022-08-03T01:33:45.385Z,23.40
2022-08-03T01:36:19.438Z,23.40
2022-08-03T01:38:55.379Z,23.40
2022-08-03T01:41:33.352Z,23.40
2022-08-03T01:44:29.139Z,23.20
2022-08-03T01:46:56.937Z,23.20
2022-08-03T01:49:28.347Z,23.20
2022-08-03T01:52:04.264Z,23.20
2022-08-03T01:54:41.984Z,23.20
2022-08-03T01:57:12.649Z,23.10
2022-08-03T01:59:44.249Z,23.10
2022-08-03T02:02:32.794Z,23.10
2022-08-03T02:05:10.602Z,23.00
2022-08-03T02:07:43.720Z,22.90
2022-08-03T02:10:16.301Z,22.90
2022-08-03T02:13:06.392Z,22.80
2022-08-03T02:15:38.226Z,22.90
2022-08-03T02:18:11.507Z,22.90
2022-08-03T02:20:43.048Z,22.90
2022-08-03T02:23:12.191Z,22.90
2022-08-03T02:25:49.129Z,22.90
2022-08-03T02:28:22.836Z,22.90
2022-08-03T02:30:56.932Z,22.90
2022-08-03T02:33:33.037Z,22.90
2022-08-03T02:36:03.433Z,22.80
2022-08-03T02:38:37.310Z,22.90
2022-08-03T02:41:22.467Z,22.80
2022-08-03T02:44:06.333Z,22.80
2022-08-03T02:46:40.993Z,22.80
2022-08-03T02:49:40.571Z,22.70
2022-08-03T02:52:05.441Z,22.60
2022-08-03T02:54:37.376Z,22.60
2022-08-03T02:57:09.009Z,22.50
2022-08-03T02:59:41.457Z,22.50
2022-08-03T03:02:12.379Z,22.50
2022-08-03T03:05:50.683Z,22.40
2022-08-03T03:07:45.423Z,22.30
2022-08-03T03:10:23.227Z,22.20
2022-08-03T03:12:55.764Z,22.20
2022-08-03T03:15:27.216Z,22.20
2022-08-03T03:17:57.745Z,22.20
2022-08-03T03:20:32.362Z,22.20
2022-08-03T03:23:02.693Z,22.20
2022-08-03T03:25:33.983Z,22.20
2022-08-03T03:28:06.359Z,22.20
2022-08-03T03:30:36.377Z,22.20
2022-08-03T03:33:05.204Z,22.10
2022-08-03T03:35:38.953Z,22.10
2022-08-03T03:38:08.746Z,22.10
2022-08-03T03:40:38.062Z,22.10
2022-08-03T03:43:10.719Z,22.10
2022-08-03T03:45:42.452Z,22.10
2022-08-03T03:48:11.251Z,22.10
2022-08-03T03:50:41.608Z,22.20
2022-08-03T03:53:12.952Z,22.30
2022-08-03T03:55:58.937Z,22.40
2022-08-03T03:58:33.398Z,22.50
2022-08-03T04:01:02.725Z,22.60
2022-08-03T04:03:31.750Z,22.60
2022-08-03T04:06:19.433Z,22.80
2022-08-03T04:09:13.908Z,23.00
2022-08-03T04:11:48.856Z,23.30
2022-08-03T04:14:25.836Z,23.50
2022-08-03T04:17:00.061Z,23.80
2022-08-03T04:19:34.146Z,23.90
2022-08-03T04:22:08.532Z,24.20
2022-08-03T04:24:44.405Z,24.30
2022-08-03T04:27:18.325Z,24.50
2022-08-03T04:29:52.880Z,24.70
2022-08-03T04:32:25.447Z,24.90
2022-08-03T04:34:54.888Z,25.10
2022-08-03T04:37:36.582Z,25.40
2022-08-03T04:40:10.504Z,25.80
2022-08-03T04:42:41.723Z,26.00
2022-08-03T04:45:16.129Z,26.30
2022-08-03T04:47:45.475Z,26.50
2022-08-03T04:50:18.153Z,26.70
2022-08-03T04:52:51.563Z,26.90
2022-08-03T04:55:28.768Z,27.30
2022-08-03T04:57:57.904Z,27.60
2022-08-03T05:00:27.696Z,27.90
2022-08-03T05:02:56.887Z,28.40
2022-08-03T05:05:26.276Z,29.10
2022-08-03T05:08:16.510Z,29.80
2022-08-03T05:10:49.797Z,30.50
2022-08-03T05:13:18.525Z,30.90
2022-08-03T05:15:47.226Z,31.40
2022-08-03T05:18:15.948Z,31.90
2022-08-03T05:20:44.768Z,32.10
2022-08-03T05:23:13.479Z,32.70
2022-08-03T05:25:49.572Z,33.10
2022-08-03T05:28:19.000Z,33.30
2022-08-03T05:30:47.738Z,33.40
2022-08-03T05:33:16.638Z,33.70
2022-08-03T05:35:56.811Z,34.10
2022-08-03T05:38:34.951Z,34.10
2022-08-03T05:41:22.032Z,34.00
2022-08-03T05:43:54.027Z,33.70
2022-08-03T05:46:24.045Z,33.50
2022-08-03T05:48:53.218Z,33.80
2022-08-03T05:51:22.118Z,34.20
2022-08-03T05:53:51.441Z,34.30
2022-08-03T05:56:24.862Z,34.60
2022-08-03T05:58:54.306Z,35.50
2022-08-03T06:01:23.703Z,35.40
2022-08-03T06:03:53.739Z,35.60
2022-08-03T06:06:23.060Z,35.60
2022-08-03T06:08:51.742Z,35.90
2022-08-03T06:11:21.891Z,35.80
2022-08-03T06:13:50.567Z,36.00
2022-08-03T06:16:19.365Z,35.40
2022-08-03T06:18:48.003Z,35.10
2022-08-03T06:21:17.384Z,35.10
2022-08-03T06:23:54.810Z,35.10
2022-08-03T06:26:28.774Z,35.10
2022-08-03T06:28:58.169Z,35.10
2022-08-03T06:31:32.689Z,35.20
2022-08-03T06:34:31.093Z,35.30
2022-08-03T06:36:58.585Z,35.20
2022-08-03T06:39:31.080Z,35.20
2022-08-03T06:42:01.184Z,34.90
2022-08-03T06:44:29.917Z,35.00
2022-08-03T06:46:58.781Z,34.80
2022-08-03T06:49:27.986Z,35.10
2022-08-03T06:52:05.765Z,35.50
2022-08-03T06:54:38.608Z,35.40
2022-08-03T06:57:11.649Z,35.60
2022-08-03T07:00:10.591Z,35.30
2022-08-03T07:02:29.588Z,34.90
2022-08-03T07:04:58.976Z,34.90
2022-08-03T07:07:27.713Z,35.20
2022-08-03T07:09:58.053Z,35.30
2022-08-03T07:12:30.612Z,35.50
2022-08-03T07:15:02.523Z,35.60
2022-08-03T07:17:34.271Z,35.80
2022-08-03T07:20:07.523Z,35.60
2022-08-03T07:22:36.669Z,35.30
2022-08-03T07:25:06.577Z,35.00
2022-08-03T07:27:37.203Z,34.60
2022-08-03T07:30:09.902Z,34.50
2022-08-03T07:32:50.621Z,34.80
2022-08-03T07:35:25.082Z,34.90
2022-08-03T07:37:55.032Z,35.00
2022-08-03T07:40:26.985Z,35.10
2022-08-03T07:43:03.613Z,35.20
2022-08-03T07:45:33.233Z,35.30
2022-08-03T07:48:02.029Z,35.50
2022-08-03T07:50:31.219Z,35.70
2022-08-03T07:52:59.972Z,35.50
2022-08-03T07:55:30.460Z,35.60
2022-08-03T07:58:06.387Z,35.60
2022-08-03T08:00:36.122Z,36.10
2022-08-03T08:03:06.112Z,36.30
2022-08-03T08:05:35.912Z,36.90
2022-08-03T08:08:06.081Z,36.70
2022-08-03T08:10:35.266Z,36.20
2022-08-03T08:13:06.090Z,36.10
2022-08-03T08:15:34.933Z,36.40
2022-08-03T08:18:03.945Z,36.50
2022-08-03T08:20:38.129Z,36.60
2022-08-03T08:23:24.841Z,36.90
2022-08-03T08:25:58.098Z,37.10
2022-08-03T08:28:32.808Z,37.40
2022-08-03T08:31:02.477Z,37.50
2022-08-03T08:34:01.003Z,37.30
2022-08-03T08:36:21.484Z,37.10
2022-08-03T08:38:50.922Z,36.60
2022-08-03T08:41:19.698Z,36.40
2022-08-03T08:43:49.780Z,36.50
2022-08-03T08:46:23.180Z,37.20
2022-08-03T08:48:54.490Z,37.90
2022-08-03T08:51:59.055Z,37.80
2022-08-03T08:54:23.044Z,37.50
2022-08-03T08:56:53.529Z,37.80
2022-08-03T08:59:24.294Z,38.10
2022-08-03T09:01:57.896Z,37.60
2022-08-03T09:04:26.897Z,36.80
2022-08-03T09:07:18.663Z,36.90
2022-08-03T09:10:10.381Z,37.10
2022-08-03T09:12:42.355Z,36.90
2022-08-03T09:15:25.979Z,37.30
2022-08-03T09:17:57.833Z,37.70
2022-08-03T09:20:28.979Z,38.20
2022-08-03T09:23:00.598Z,38.70
2022-08-03T09:25:36.011Z,38.90
2022-08-03T09:28:13.075Z,39.10
2022-08-03T09:31:03.128Z,39.00
2022-08-03T09:33:34.845Z,38.60
2022-08-03T09:36:05.560Z,38.00
2022-08-03T09:38:34.239Z,38.20
2022-08-03T09:41:02.998Z,38.10
2022-08-03T09:43:48.415Z,37.70
2022-08-03T09:46:19.738Z,37.30
2022-08-03T09:48:48.494Z,37.10
2022-08-03T09:52:28.784Z,36.90
2022-08-03T09:54:16.363Z,37.20
2022-08-03T09:56:49.090Z,37.20
2022-08-03T09:59:27.592Z,37.30
2022-08-03T10:01:59.939Z,37.60
2022-08-03T10:04:29.035Z,37.80
2022-08-03T10:07:08.491Z,38.00
2022-08-03T10:09:40.495Z,38.20
2022-08-03T10:12:13.737Z,38.10
2022-08-03T10:14:45.763Z,38.20
2022-08-03T10:17:16.277Z,38.40
2022-08-03T10:19:45.516Z,38.00
2022-08-03T10:22:17.489Z,38.00
2022-08-03T10:24:56.975Z,38.00
2022-08-03T10:27:29.150Z,38.00
2022-08-03T10:30:03.312Z,38.20
2022-08-03T10:32:42.358Z,38.40
2022-08-03T10:35:20.429Z,38.10
2022-08-03T10:37:59.136Z,38.00
2022-08-03T10:40:48.187Z,37.90
2022-08-03T10:43:23.171Z,37.80
2022-08-03T10:45:53.194Z,37.70
2022-08-03T10:48:23.883Z,37.40
2022-08-03T10:50:53.457Z,37.10
2022-08-03T10:53:37.860Z,36.50
2022-08-03T10:56:49.732Z,35.80
2022-08-03T10:59:27.523Z,35.90
2022-08-03T11:02:00.985Z,35.60
2022-08-03T11:04:31.438Z,35.00
2022-08-03T11:07:23.848Z,35.10
2022-08-03T11:09:55.260Z,35.70
2022-08-03T11:12:29.938Z,36.20
2022-08-03T11:15:04.150Z,36.60
2022-08-03T11:17:46.832Z,36.90
2022-08-03T11:20:49.440Z,37.00
2022-08-03T11:24:04.171Z,37.20
2022-08-03T11:26:22.669Z,37.40
2022-08-03T11:28:51.478Z,37.40
2022-08-03T11:31:52.899Z,37.00
2022-08-03T11:34:21.699Z,36.60
2022-08-03T11:37:28.796Z,36.60
2022-08-03T11:40:02.837Z,36.80
2022-08-03T11:42:48.670Z,36.80
2022-08-03T11:45:20.007Z,36.80
2022-08-03T11:47:52.807Z,36.40
2022-08-03T11:50:22.339Z,36.20
2022-08-03T11:52:52.911Z,36.10
2022-08-03T11:55:23.747Z,36.00
2022-08-03T11:59:10.856Z,35.60
2022-08-03T12:00:41.735Z,35.20
2022-08-03T12:03:14.469Z,34.60
2022-08-03T12:05:51.679Z,34.40
2022-08-03T12:08:35.088Z,34.30
2022-08-03T12:11:06.949Z,34.40
2022-08-03T12:14:45.213Z,34.40
2022-08-03T12:16:31.511Z,34.60
2022-08-03T12:19:02.455Z,35.00
2022-08-03T12:21:32.015Z,35.40
2022-08-03T12:24:05.201Z,35.60
2022-08-03T12:26:59.518Z,35.80
2022-08-03T12:29:28.790Z,35.90
2022-08-03T12:31:58.122Z,36.10
2022-08-03T12:34:47.457Z,36.10
2022-08-03T12:37:22.046Z,36.20
2022-08-03T12:40:03.027Z,36.20
2022-08-03T12:42:36.168Z,36.30
2022-08-03T12:45:21.151Z,36.30
2022-08-03T12:47:55.754Z,36.30
2022-08-03T12:50:31.382Z,36.10
2022-08-03T12:53:03.279Z,36.10
2022-08-03T12:55:57.053Z,36.00
2022-08-03T12:58:35.239Z,35.80
2022-08-03T13:01:10.465Z,35.20
2022-08-03T13:03:50.018Z,34.80
2022-08-03T13:06:24.598Z,34.60
2022-08-03T13:09:06.395Z,34.30
2022-08-03T13:11:57.600Z,34.20
2022-08-03T13:14:25.532Z,34.20
2022-08-03T13:16:54.220Z,34.10
2022-08-03T13:19:22.901Z,34.10
2022-08-03T13:22:01.385Z,34.10
2022-08-03T13:24:34.458Z,34.20
2022-08-03T13:28:01.493Z,34.10
2022-08-03T13:29:56.592Z,34.00
2022-08-03T13:32:25.679Z,33.90
2022-08-03T13:34:54.432Z,33.70
2022-08-03T13:37:23.605Z,33.50
2022-08-03T13:39:59.081Z,33.40
2022-08-03T13:42:31.011Z,33.30
2022-08-03T13:45:00.260Z,33.20
2022-08-03T13:47:29.336Z,33.20
2022-08-03T13:49:59.660Z,33.00
2022-08-03T13:52:29.587Z,32.90
2022-08-03T13:54:58.778Z,32.80
2022-08-03T13:58:04.432Z,32.80
2022-08-03T14:00:27.413Z,32.70
2022-08-03T14:03:05.130Z,32.70
2022-08-03T14:05:37.257Z,32.60
2022-08-03T14:08:07.338Z,32.60
2022-08-03T14:10:38.293Z,32.80
2022-08-03T14:13:07.089Z,33.10
2022-08-03T14:15:38.517Z,33.30
2022-08-03T14:18:15.499Z,33.60
2022-08-03T14:20:50.287Z,33.90
2022-08-03T14:23:23.534Z,34.20
2022-08-03T14:25:53.318Z,34.50
2022-08-03T14:28:24.724Z,34.60
2022-08-03T14:30:57.124Z,34.80
2022-08-03T14:33:28.484Z,34.90
2022-08-03T14:35:57.719Z,34.90
2022-08-03T14:38:26.803Z,35.00
2022-08-03T14:40:55.808Z,35.00
2022-08-03T14:43:25.197Z,35.00
2022-08-03T14:45:55.586Z,35.00
2022-08-03T14:50:32.448Z,35.00
2022-08-03T14:51:16.180Z,34.90
2022-08-03T14:53:44.940Z,34.90
2022-08-03T14:56:13.598Z,34.70
2022-08-03T14:58:42.356Z,34.40
2022-08-03T15:02:06.522Z,34.20
2022-08-03T15:04:01.606Z,33.90
2022-08-03T15:06:30.347Z,33.70
2022-08-03T15:09:21.534Z,33.60
2022-08-03T15:11:47.892Z,33.60
2022-08-03T15:14:18.563Z,33.50
2022-08-03T15:16:52.526Z,33.40
2022-08-03T15:20:01.131Z,33.40
2022-08-03T15:22:10.071Z,33.30
2022-08-03T15:24:38.883Z,33.30
2022-08-03T15:27:07.655Z,33.40
2022-08-03T15:30:09.131Z,33.60
2022-08-03T15:32:26.638Z,33.70
2022-08-03T15:34:55.509Z,33.80
2022-08-03T15:37:25.839Z,33.90
2022-08-03T15:39:59.752Z,33.90
2022-08-03T15:42:30.977Z,34.00
2022-08-03T15:45:00.830Z,34.10
2022-08-03T15:47:31.000Z,34.20
2022-08-03T15:49:59.989Z,34.20
2022-08-03T15:52:29.124Z,34.30
2022-08-03T15:54:58.110Z,34.30
2022-08-03T15:57:27.372Z,34.40
2022-08-03T15:59:56.215Z,34.50
2022-08-03T16:02:28.223Z,34.50
2022-08-03T16:04:58.471Z,34.20
2022-08-03T16:07:41.265Z,33.90
2022-08-03T16:10:30.774Z,33.70
2022-08-03T16:13:00.383Z,33.30
2022-08-03T16:15:29.691Z,33.20
2022-08-03T16:17:58.417Z,33.10
2022-08-03T16:20:34.492Z,33.00
2022-08-03T16:23:10.621Z,33.00
2022-08-03T16:25:41.421Z,32.90
2022-08-03T16:28:14.666Z,32.90
2022-08-03T16:30:46.310Z,32.90
2022-08-03T16:33:17.942Z,32.80
2022-08-03T16:35:49.748Z,32.80
2022-08-03T16:38:19.591Z,32.90
2022-08-03T16:40:52.225Z,33.10
2022-08-03T16:43:23.262Z,33.30
2022-08-03T16:45:52.398Z,33.50
2022-08-03T16:48:21.244Z,33.70
2022-08-03T16:50:51.259Z,33.90
2022-08-03T16:53:33.182Z,34.00
2022-08-03T16:56:10.332Z,34.00
2022-08-03T16:58:41.494Z,33.70
2022-08-03T17:01:23.471Z,33.50
2022-08-03T17:04:01.971Z,33.30
2022-08-03T17:06:38.160Z,33.10
2022-08-03T17:09:18.133Z,32.90
2022-08-03T17:11:49.364Z,32.70
2022-08-03T17:14:22.832Z,32.60
2022-08-03T17:17:01.790Z,32.50
2022-08-03T17:19:36.574Z,32.40
2022-08-03T17:22:19.161Z,32.30
2022-08-03T17:24:52.265Z,32.20
2022-08-03T17:28:48.532Z,32.10
2022-08-03T17:30:18.799Z,32.00
2022-08-03T17:32:53.499Z,31.90
2022-08-03T17:35:34.392Z,31.90
2022-08-03T17:38:13.740Z,31.80
2022-08-03T17:40:50.274Z,31.70
2022-08-03T17:44:14.207Z,31.70
2022-08-03T17:46:12.246Z,31.70
2022-08-03T17:48:42.172Z,31.60
2022-08-03T17:51:18.021Z,31.50
2022-08-03T17:54:18.155Z,31.40
2022-08-03T17:56:57.094Z,31.30
2022-08-03T17:59:51.603Z,31.20
2022-08-03T18:03:04.419Z,31.10
2022-08-03T18:06:10.562Z,31.00
2022-08-03T18:08:28.689Z,30.90
2022-08-03T18:11:09.914Z,30.80
2022-08-03T18:13:57.880Z,30.70
2022-08-03T18:16:34.955Z,30.60
2022-08-03T18:19:14.185Z,30.60
2022-08-03T18:22:02.782Z,30.50
2022-08-03T18:24:33.436Z,30.50
2022-08-03T18:27:04.994Z,30.10
2022-08-03T18:29:37.716Z,29.90
2022-08-03T18:32:25.401Z,29.70
2022-08-03T18:34:58.289Z,29.80
2022-08-03T18:37:27.925Z,29.80
2022-08-03T18:40:00.007Z,29.80
2022-08-03T18:42:32.301Z,29.80
2022-08-03T18:45:15.043Z,29.70
2022-08-03T18:48:05.412Z,29.70
2022-08-03T18:50:49.657Z,29.60
2022-08-03T18:54:03.470Z,29.60
2022-08-03T18:56:24.734Z,29.50
2022-08-03T18:59:02.581Z,29.40
2022-08-03T19:02:00.087Z,29.30
2022-08-03T19:04:37.021Z,29.30
2022-08-03T19:07:11.135Z,29.20
2022-08-03T19:09:49.748Z,29.10
2022-08-03T19:12:30.596Z,29.00
2022-08-03T19:15:10.516Z,29.10
2022-08-03T19:17:52.670Z,29.40
2022-08-03T19:20:25.182Z,29.60
2022-08-03T19:22:56.133Z,29.90
2022-08-03T19:25:35.199Z,29.90
2022-08-03T19:28:07.302Z,30.00
2022-08-03T19:30:40.839Z,30.10
2022-08-03T19:33:23.402Z,30.10
2022-08-03T19:35:56.733Z,30.20
2022-08-03T19:38:28.501Z,30.20
2022-08-03T19:41:02.987Z,30.20
2022-08-03T19:43:53.856Z,30.20
2022-08-03T19:46:31.605Z,30.20
2022-08-03T19:49:14.521Z,30.20
2022-08-03T19:52:01.597Z,30.20
2022-08-03T19:54:52.865Z,30.00
2022-08-03T19:57:26.821Z,29.90
2022-08-03T19:59:58.479Z,29.80
2022-08-03T20:02:34.837Z,29.80
2022-08-03T20:05:03.695Z,29.60
2022-08-03T20:07:34.413Z,29.40
2022-08-03T20:10:09.760Z,29.30
2022-08-03T20:12:40.784Z,29.30
2022-08-03T20:15:10.899Z,29.20
2022-08-03T20:17:57.025Z,29.00
2022-08-03T20:20:32.794Z,28.80
2022-08-03T20:23:07.222Z,28.60
2022-08-03T20:25:58.128Z,28.40
2022-08-03T20:28:50.494Z,28.20
2022-08-03T20:31:32.131Z,28.00
2022-08-03T20:34:09.098Z,27.90
2022-08-03T20:36:38.206Z,27.70
2022-08-03T20:39:07.663Z,27.70
2022-08-03T20:41:38.020Z,27.70
2022-08-03T20:44:08.192Z,27.60
2022-08-03T20:46:51.682Z,27.50
2022-08-03T20:49:29.121Z,27.40
2022-08-03T20:52:18.050Z,27.30
2022-08-03T20:54:49.190Z,27.30
2022-08-03T20:57:19.551Z,27.20
2022-08-03T20:59:51.491Z,27.20
2022-08-03T21:02:28.928Z,27.20
2022-08-03T21:05:03.352Z,27.10
2022-08-03T21:08:04.301Z,27.00
2022-08-03T21:10:33.540Z,27.00
2022-08-03T21:13:17.667Z,27.00
2022-08-03T21:16:04.882Z,26.90
2022-08-03T21:18:49.302Z,26.80
2022-08-03T21:21:24.987Z,26.70
2022-08-03T21:23:56.291Z,26.70
2022-08-03T21:26:27.229Z,26.60
2022-08-03T21:28:58.241Z,26.50
2022-08-03T21:31:28.222Z,26.50
2022-08-03T21:34:00.821Z,26.50
2022-08-03T21:36:33.684Z,26.50
2022-08-03T21:39:03.635Z,26.50
2022-08-03T21:41:34.081Z,26.40
2022-08-03T21:44:04.221Z,26.40
2022-08-03T21:46:38.591Z,26.50
2022-08-03T21:50:05.846Z,26.40
2022-08-03T21:52:05.252Z,26.40
2022-08-03T21:54:38.029Z,26.40
2022-08-03T21:57:20.445Z,26.30
2022-08-03T21:59:55.786Z,26.30
2022-08-03T22:02:31.450Z,26.30
2022-08-03T22:05:05.062Z,26.20
2022-08-03T22:07:38.001Z,26.20
2022-08-03T22:10:08.659Z,26.20
2022-08-03T22:12:37.809Z,26.20
2022-08-03T22:15:10.032Z,26.10
2022-08-03T22:17:54.957Z,26.00
2022-08-03T22:20:26.395Z,25.90
2022-08-03T22:23:01.998Z,25.80
2022-08-03T22:25:33.198Z,25.70
2022-08-03T22:28:05.466Z,25.70
2022-08-03T22:30:34.815Z,25.70
2022-08-03T22:33:11.032Z,25.80
2022-08-03T22:35:47.986Z,25.70
2022-08-03T22:38:19.540Z,25.70
2022-08-03T22:40:51.132Z,25.70
2022-08-03T22:43:23.954Z,25.60
2022-08-03T22:46:09.398Z,25.60
2022-08-03T22:48:41.721Z,25.60
2022-08-03T22:51:11.672Z,25.60
2022-08-03T22:53:42.858Z,25.60
2022-08-03T22:56:12.627Z,25.50
2022-08-03T22:58:41.320Z,25.40
2022-08-03T23:01:13.069Z,25.40
2022-08-03T23:03:59.191Z,25.40
2022-08-03T23:06:36.829Z,25.40
2022-08-03T23:09:12.456Z,25.40
2022-08-03T23:11:45.882Z,25.30
2022-08-03T23:14:17.363Z,25.30
2022-08-03T23:16:48.556Z,25.30
2022-08-03T23:19:25.156Z,25.30
2022-08-03T23:22:02.659Z,25.20
2022-08-03T23:24:37.071Z,25.10
2022-08-03T23:27:07.995Z,25.00
2022-08-03T23:29:38.179Z,24.90
2022-08-03T23:32:08.844Z,24.90
2022-08-03T23:34:58.206Z,25.00
2022-08-03T23:37:27.950Z,25.00
2022-08-03T23:40:00.612Z,24.90
2022-08-03T23:42:30.289Z,24.90
2022-08-03T23:45:05.743Z,24.90
2022-08-03T23:47:46.711Z,24.90
2022-08-03T23:50:16.516Z,24.70
2022-08-03T23:52:59.441Z,24.70
2022-08-03T23:55:54.806Z,24.70
2022-08-03T23:58:54.327Z,24.60
